Time;durP1;ratioP1;P1;durP2;ratioP2;P2;SDS_P1;SDS_P2;PMS_P1;PMS_P2;Temp;Humidity;BMP_temperature;BMP_pressure;BME280_temperature;BME280_humidity;BME280_pressure;Samples;Min_cycle;Max_cycle;Signal;HPM_P1;HPM_P2
2023/06/19 00:02:01;;;;;;;9.97;8.97;;;;;;;18.44;100.00;96043.19;4991943;28;101950;-62
2023/06/19 00:04:30;;;;;;;10.63;9.73;;;;;;;18.37;100.00;96040.91;4992577;28;105241;-62
2023/06/19 00:06:56;;;;;;;9.73;8.83;;;;;;;18.43;100.00;96038.91;4991889;28;105787;-62
2023/06/19 00:09:23;;;;;;;9.77;8.77;;;;;;;18.31;100.00;96044.03;5014425;28;102043;-62
2023/06/19 00:11:50;;;;;;;9.13;8.23;;;;;;;18.32;100.00;96040.25;4991894;28;105551;-61
2023/06/19 00:14:17;;;;;;;9.87;8.87;;;;;;;18.38;100.00;96034.44;4992604;28;102023;-62
2023/06/19 00:16:44;;;;;;;9.37;8.53;;;;;;;18.38;100.00;96033.66;4992774;28;105325;-62
2023/06/19 00:19:12;;;;;;;9.40;8.47;;;;;;;18.17;100.00;96030.63;4991985;28;105724;-62
2023/06/19 00:21:42;;;;;;;10.10;9.03;;;;;;;18.17;100.00;96036.03;4992609;28;101987;-61
2023/06/19 00:24:10;;;;;;;9.50;8.70;;;;;;;18.18;100.00;96034.09;5010952;28;102592;-61
2023/06/19 00:26:37;;;;;;;10.07;9.17;;;;;;;18.10;100.00;96032.16;5010001;28;102666;-61
2023/06/19 00:29:04;;;;;;;9.50;8.70;;;;;;;17.99;100.00;96036.19;4992573;28;102167;-61
2023/06/19 00:31:31;;;;;;;9.77;8.97;;;;;;;17.98;100.00;96026.53;5013233;28;102600;-61
2023/06/19 00:33:58;;;;;;;9.50;8.43;;;;;;;17.98;100.00;96029.22;4992297;28;101996;-62
2023/06/19 00:36:26;;;;;;;9.83;8.87;;;;;;;18.00;100.00;96029.72;4992234;28;105413;-62
2023/06/19 00:38:54;;;;;;;9.87;8.87;;;;;;;17.80;100.00;96030.16;4991689;28;105802;-61
2023/06/19 00:41:22;;;;;;;10.47;9.47;;;;;;;17.74;100.00;96032.19;4992153;28;102121;-62
2023/06/19 00:43:49;;;;;;;10.37;9.37;;;;;;;17.77;100.00;96030.78;4992226;28;105265;-62
2023/06/19 00:46:16;;;;;;;10.37;9.43;;;;;;;17.91;100.00;96032.34;4991582;28;105314;-62
2023/06/19 00:48:43;;;;;;;12.63;9.27;;;;;;;17.92;100.00;96033.91;4992019;28;102115;-62
2023/06/19 00:51:10;;;;;;;10.47;9.47;;;;;;;17.80;100.00;96038.25;4991976;28;105551;-62
2023/06/19 00:53:37;;;;;;;10.17;9.13;;;;;;;17.87;100.00;96031.34;4994581;28;101805;-62
2023/06/19 00:56:07;;;;;;;9.93;9.13;;;;;;;17.90;100.00;96029.94;4991861;28;105901;-62
2023/06/19 00:58:35;;;;;;;9.57;8.67;;;;;;;17.87;100.00;96033.25;4991293;28;105424;-62
2023/06/19 01:01:02;;;;;;;10.87;9.77;;;;;;;17.84;100.00;96025.78;4991972;28;101935;-62
2023/06/19 01:03:29;;;;;;;10.83;9.73;;;;;;;17.79;100.00;96031.28;4991963;28;105786;-62
2023/06/19 01:05:59;;;;;;;9.60;8.70;;;;;;;17.77;100.00;96028.09;5009489;28;102725;-61
2023/06/19 01:08:42;;;;;;;10.03;9.13;;;;;;;17.73;100.00;96022.53;4991681;28;102145;-62
2023/06/19 01:11:13;;;;;;;9.90;9.00;;;;;;;17.67;100.00;96037.22;5009831;28;102953;-62
2023/06/19 01:13:45;;;;;;;10.57;9.57;;;;;;;17.71;100.00;96023.94;4994012;28;105490;-62
2023/06/19 01:16:13;;;;;;;10.20;9.30;;;;;;;17.63;100.00;96030.03;4991790;28;103680;-62
2023/06/19 01:18:41;;;;;;;10.10;9.20;;;;;;;17.56;100.00;96026.97;4990831;28;105353;-61
2023/06/19 01:21:12;;;;;;;11.37;10.17;;;;;;;17.52;100.00;96037.53;5009657;28;101810;-62
2023/06/19 01:23:41;;;;;;;10.40;9.50;;;;;;;17.47;100.00;96036.84;4990442;28;105465;-62
2023/06/19 01:26:09;;;;;;;10.13;9.23;;;;;;;17.44;100.00;96026.69;4990994;28;105630;-62
2023/06/19 01:28:40;;;;;;;10.57;9.57;;;;;;;17.48;100.00;96030.34;5009515;28;101860;-61
2023/06/19 01:31:12;;;;;;;9.63;8.83;;;;;;;17.47;100.00;96020.69;4991394;28;105223;-62
2023/06/19 01:33:43;;;;;;;10.03;8.93;;;;;;;17.50;100.00;96022.81;4990973;28;105591;-61
2023/06/19 01:36:10;;;;;;;9.87;8.93;;;;;;;17.43;100.00;96030.50;5012894;28;101840;-61
2023/06/19 01:38:38;;;;;;;9.77;8.97;;;;;;;17.40;100.00;96020.31;4990583;28;106064;-62
2023/06/19 01:41:08;;;;;;;9.70;8.90;;;;;;;17.39;100.00;96022.22;4991231;28;102055;-62
2023/06/19 01:43:35;;;;;;;10.50;9.50;;;;;;;17.47;100.00;96020.69;4991325;28;105350;-62
2023/06/19 01:46:03;;;;;;;10.17;9.37;;;;;;;17.32;100.00;96029.88;4990562;28;105368;-61
2023/06/19 01:48:30;;;;;;;11.50;10.40;;;;;;;17.38;100.00;96025.19;4991106;28;102202;-62
2023/06/19 01:50:57;;;;;;;10.17;9.07;;;;;;;17.39;100.00;96024.13;4990254;28;105052;-61
2023/06/19 01:53:24;;;;;;;10.23;9.20;;;;;;;17.41;100.00;96028.09;4990432;28;105215;-62
2023/06/19 01:55:51;;;;;;;10.63;9.63;;;;;;;17.38;100.00;96026.00;4991115;28;101900;-62
2023/06/19 01:58:20;;;;;;;10.00;9.17;;;;;;;17.45;100.00;96033.66;4994090;28;105102;-62
2023/06/19 02:00:47;;;;;;;10.90;9.80;;;;;;;17.47;100.00;96026.09;4990961;28;101948;-62
2023/06/19 02:03:13;;;;;;;11.00;9.80;;;;;;;17.53;100.00;96030.25;4990917;28;105334;-62
2023/06/19 02:05:42;;;;;;;10.63;9.70;;;;;;;17.56;100.00;96035.81;4990558;28;105003;-62
2023/06/19 02:08:10;;;;;;;9.87;8.97;;;;;;;17.59;100.00;96031.72;4990329;28;102306;-62
2023/06/19 02:10:37;;;;;;;10.77;9.77;;;;;;;17.64;100.00;96037.00;4990962;28;103712;-61
2023/06/19 02:13:04;;;;;;;10.60;9.53;;;;;;;17.65;100.00;96027.84;5008460;28;102582;-61
2023/06/19 02:15:33;;;;;;;10.30;9.37;;;;;;;17.65;100.00;96028.63;4990503;28;102083;-62
2023/06/19 02:18:00;;;;;;;11.20;10.10;;;;;;;17.70;100.00;96038.47;4990889;28;104917;-61
2023/06/19 02:20:27;;;;;;;11.20;9.90;;;;;;;17.70;100.00;96035.78;4992667;28;105163;-61
2023/06/19 02:22:57;;;;;;;10.70;9.80;;;;;;;17.70;100.00;96031.22;4990767;28;105173;-61
2023/06/19 02:25:24;;;;;;;10.50;9.50;;;;;;;17.74;100.00;96032.19;4990029;28;105497;-62
2023/06/19 02:27:51;;;;;;;10.73;9.63;;;;;;;17.77;100.00;96033.47;4994304;28;102053;-61
2023/06/19 02:30:17;;;;;;;10.50;9.50;;;;;;;17.77;100.00;96034.25;4994110;28;104895;-61
2023/06/19 02:32:46;;;;;;;11.77;10.60;;;;;;;17.80;100.00;96041.75;4993557;28;105026;-62
2023/06/19 02:35:15;;;;;;;11.00;9.97;;;;;;;17.78;100.00;96041.25;4992934;28;102229;-61
2023/06/19 02:37:42;;;;;;;11.00;9.90;;;;;;;17.81;100.00;96039.81;4993014;28;104817;-61
2023/06/19 02:40:10;;;;;;;11.07;10.10;;;;;;;17.82;100.00;96033.38;4993511;28;105369;-61
2023/06/19 02:42:37;;;;;;;11.73;10.57;;;;;;;17.84;100.00;96039.22;4996529;28;101989;-61
2023/06/19 02:45:04;;;;;;;11.07;10.10;;;;;;;17.86;100.00;96045.91;4992463;28;105069;-61
2023/06/19 02:47:31;;;;;;;10.97;9.97;;;;;;;17.84;100.00;96039.22;4993048;28;101895;-61
2023/06/19 02:50:01;;;;;;;9.97;9.17;;;;;;;17.82;100.00;96042.22;4993005;28;105570;-61
2023/06/19 02:52:29;;;;;;;10.00;9.17;;;;;;;17.82;100.00;96049.50;4993148;28;106358;-62
2023/06/19 02:54:57;;;;;;;11.07;10.07;;;;;;;17.82;100.00;96044.13;4994152;28;101988;-61
2023/06/19 02:57:24;;;;;;;10.70;9.70;;;;;;;17.78;100.00;96053.91;4992800;28;105544;-61
2023/06/19 02:59:51;;;;;;;10.77;9.67;;;;;;;17.79;100.00;96050.09;4993176;28;105438;-61
2023/06/19 03:02:18;;;;;;;10.97;9.97;;;;;;;17.77;100.00;96055.00;5015452;28;102070;-62
2023/06/19 03:04:45;;;;;;;11.10;10.13;;;;;;;17.78;100.00;96059.28;4992250;28;105374;-61
2023/06/19 03:07:14;;;;;;;10.40;9.50;;;;;;;17.78;100.00;96059.28;4992300;28;102051;-62
2023/06/19 03:09:45;;;;;;;11.00;10.00;;;;;;;17.84;100.00;96060.75;5011807;28;102375;-61
2023/06/19 03:12:13;;;;;;;9.97;9.07;;;;;;;17.85;100.00;96065.84;4992032;28;105937;-61
2023/06/19 03:14:40;;;;;;;11.00;10.10;;;;;;;17.89;100.00;96060.63;4993363;28;101910;-61
2023/06/19 03:17:07;;;;;;;10.70;9.80;;;;;;;17.91;100.00;96059.25;4992553;28;105177;-61
2023/06/19 03:19:34;;;;;;;9.90;9.10;;;;;;;17.90;100.00;96063.03;4992684;28;105327;-62
2023/06/19 03:22:01;;;;;;;10.60;9.60;;;;;;;17.89;100.00;96074.09;4993424;28;101877;-61
2023/06/19 03:24:29;;;;;;;11.43;10.53;;;;;;;17.89;100.00;96082.16;4996380;28;105675;-61
2023/06/19 03:27:09;;;;;;;10.83;9.83;;;;;;;17.81;100.00;96080.97;4992580;28;102326;-62
2023/06/19 03:29:36;;;;;;;10.53;9.53;;;;;;;17.83;100.00;96081.47;5011609;28;102631;-61
2023/06/19 03:32:07;;;;;;;9.60;8.77;;;;;;;17.82;100.00;96087.16;4992754;28;105660;-61
2023/06/19 03:34:35;;;;;;;9.67;8.87;;;;;;;17.81;100.00;96082.88;4993163;28;101933;-61
2023/06/19 03:37:06;;;;;;;10.63;9.57;;;;;;;17.77;100.00;96087.28;4993182;28;103482;-61
2023/06/19 03:39:36;;;;;;;10.63;9.63;;;;;;;17.74;100.00;96087.88;4992646;28;105769;-61
2023/06/19 03:42:09;;;;;;;11.50;10.43;;;;;;;17.78;100.00;96092.38;4993138;28;101919;-61
2023/06/19 03:44:36;;;;;;;10.97;9.93;;;;;;;17.81;100.00;96083.66;4992084;28;105114;-62
2023/06/19 03:47:03;;;;;;;11.00;10.00;;;;;;;17.84;100.00;96090.34;4996004;28;105772;-61
2023/06/19 03:49:30;;;;;;;10.07;9.27;;;;;;;17.84;100.00;96088.47;4991924;28;105308;-61
2023/06/19 03:51:57;;;;;;;11.07;10.00;;;;;;;17.86;100.00;96093.50;5010540;28;102524;-62
2023/06/19 03:54:24;;;;;;;10.50;9.60;;;;;;;17.84;100.00;96101.09;4992071;28;101882;-61
2023/06/19 03:56:53;;;;;;;10.40;9.47;;;;;;;17.85;100.00;96091.94;4992864;28;105338;-62
2023/06/19 03:59:20;;;;;;;11.70;10.37;;;;;;;17.89;100.00;96092.91;5010451;28;102535;-62
2023/06/19 04:01:47;;;;;;;10.77;9.80;;;;;;;17.93;100.00;96107.38;4991911;28;102072;-61
2023/06/19 04:04:14;;;;;;;10.57;9.67;;;;;;;17.96;100.00;96104.88;4992770;28;105349;-61
2023/06/19 04:06:41;;;;;;;11.63;10.57;;;;;;;18.00;100.00;96105.06;4991647;28;106009;-62
2023/06/19 04:09:08;;;;;;;11.30;10.30;;;;;;;18.06;100.00;96103.84;4995241;28;101798;-62
2023/06/19 04:11:35;;;;;;;10.60;9.70;;;;;;;18.07;100.00;96102.72;4990944;28;105891;-61
2023/06/19 04:14:04;;;;;;;12.03;10.83;;;;;;;18.08;100.00;96107.00;4992709;28;101966;-62
2023/06/19 04:16:31;;;;;;;10.33;9.43;;;;;;;18.13;100.00;96096.94;4991617;28;105889;-61
2023/06/19 04:18:58;;;;;;;12.00;10.90;;;;;;;18.21;100.00;96101.56;4991804;28;104386;-61
2023/06/19 04:21:25;;;;;;;13.87;12.47;;;;;;;18.28;100.00;96103.84;4991777;28;102195;-62
2023/06/19 04:23:52;;;;;;;11.93;10.83;;;;;;;18.32;100.00;96102.97;4991626;28;104893;-62
2023/06/19 04:26:21;;;;;;;10.93;10.00;;;;;;;18.38;100.00;96107.16;4991074;28;105368;-61
2023/06/19 04:28:48;;;;;;;12.07;10.87;;;;;;;18.38;100.00;96111.72;5009749;28;101984;-61
2023/06/19 04:31:18;;;;;;;11.87;10.87;;;;;;;18.32;100.00;96118.31;4994205;28;105628;-61
2023/06/19 04:33:45;;;;;;;11.43;10.43;;;;;;;18.40;100.00;96120.28;5009398;28;101993;-61
2023/06/19 04:36:12;;;;;;;11.77;10.63;;;;;;;18.46;100.00;96121.75;5009699;28;101713;-61
2023/06/19 04:38:39;;;;;;;11.17;10.17;;;;;;;18.52;100.00;96115.16;4990862;28;105482;-61
2023/06/19 04:41:05;;;;;;;11.17;10.07;;;;;;;18.58;100.00;96124.72;4991471;28;102205;-61
2023/06/19 04:43:33;;;;;;;10.60;9.57;;;;;;;18.63;100.00;96125.34;5009344;28;102279;-61
2023/06/19 04:46:03;;;;;;;10.13;9.23;;;;;;;18.65;100.00;96119.66;4991469;28;105401;-62
2023/06/19 04:48:31;;;;;;;10.27;9.37;;;;;;;18.69;100.00;96134.13;4991442;28;102338;-61
2023/06/19 04:51:00;;;;;;;11.17;10.17;;;;;;;18.73;100.00;96130.50;4992100;28;105246;-61
2023/06/19 04:53:27;;;;;;;10.63;9.73;;;;;;;18.77;100.00;96134.19;4993847;28;105185;-62
2023/06/19 04:55:55;;;;;;;10.40;9.50;;;;;;;18.82;100.00;96133.25;4992074;28;105845;-61
2023/06/19 04:58:22;;;;;;;10.27;9.37;;;;;;;18.86;100.00;96135.00;4991493;28;105277;-61
2023/06/19 05:00:52;;;;;;;9.93;9.03;;;;;;;18.89;100.00;96138.97;5010264;28;102081;-62
2023/06/19 05:03:19;;;;;;;9.43;8.53;;;;;;;18.89;100.00;96138.97;4991779;28;105101;-61
2023/06/19 05:05:47;;;;;;;9.80;8.90;;;;;;;18.84;100.00;96141.81;4991252;28;105522;-61
2023/06/19 05:08:14;;;;;;;12.07;9.67;;;;;;;18.88;100.00;96148.19;4991368;28;102008;-61
2023/06/19 05:10:41;;;;;;;10.13;9.13;;;;;;;18.84;100.00;96144.50;4991882;28;105321;-61
2023/06/19 05:13:08;;;;;;;9.20;8.40;;;;;;;18.87;100.00;96155.47;4994514;28;105000;-61
2023/06/19 05:15:36;;;;;;;10.10;9.17;;;;;;;18.91;100.00;96155.66;5009648;28;102342;-61
2023/06/19 05:18:03;;;;;;;10.13;9.13;;;;;;;18.93;100.00;96159.63;4991272;28;105520;-61
2023/06/19 05:20:30;;;;;;;10.03;8.93;;;;;;;18.96;100.00;96159.00;4991779;28;101917;-61
2023/06/19 05:22:58;;;;;;;10.17;9.17;;;;;;;18.96;100.00;96155.53;5009870;28;103132;-61
2023/06/19 05:25:25;;;;;;;9.83;8.57;;;;;;;18.95;100.00;96160.13;4990881;28;104350;-61
2023/06/19 05:27:52;;;;;;;9.87;8.97;;;;;;;18.98;100.00;96169.47;4991682;28;102048;-61
2023/06/19 05:30:19;;;;;;;9.53;8.53;;;;;;;19.01;100.00;96168.88;4991514;28;104929;-61
2023/06/19 05:32:46;;;;;;;9.77;8.77;;;;;;;19.10;100.00;96172.41;4990888;28;105625;-61
2023/06/19 05:35:13;;;;;;;9.37;8.47;;;;;;;19.09;100.00;96176.22;4994914;28;102176;-61
2023/06/19 05:37:42;;;;;;;9.87;8.93;;;;;;;19.17;100.00;96183.53;4990757;28;105407;-61
2023/06/19 05:40:12;;;;;;;9.07;8.23;;;;;;;19.17;100.00;96183.53;4991519;28;101883;-61
2023/06/19 05:42:39;;;;;;;10.17;9.00;;;;;;;19.20;100.00;96180.22;4991543;28;104803;-61
2023/06/19 05:45:06;;;;;;;9.77;8.83;;;;;;;19.32;100.00;96185.88;4990554;28;105389;-61
2023/06/19 05:47:33;;;;;;;9.73;8.63;;;;;;;19.37;100.00;96188.44;4991296;28;101912;-61
2023/06/19 05:50:01;;;;;;;9.50;8.50;;;;;;;19.39;100.00;96189.72;4991373;28;105058;-61
2023/06/19 05:52:27;;;;;;;10.20;9.17;;;;;;;19.31;100.00;96195.06;4990645;28;105362;-61
2023/06/19 05:54:54;;;;;;;10.77;8.43;;;;;;;19.32;100.00;96197.47;4991163;28;101849;-61
2023/06/19 05:57:22;;;;;;;12.40;8.27;;;;;;;19.34;100.00;96205.25;4994085;28;105285;-61
2023/06/19 05:59:50;;;;;;;10.60;9.50;;;;;;;19.30;100.00;96209.66;5009865;28;101854;-61
2023/06/19 06:02:17;;;;;;;10.57;9.43;;;;;;;19.40;100.00;96218.28;4994773;28;104910;-61
2023/06/19 06:04:44;;;;;;;12.27;9.67;;;;;;;19.44;100.00;96231.94;4993982;28;105798;-61
2023/06/19 06:07:11;;;;;;;10.93;9.53;;;;;;;19.57;100.00;96228.34;4994039;28;102060;-61
2023/06/19 06:09:38;;;;;;;11.63;8.87;;;;;;;19.63;100.00;96224.41;4994674;28;105761;-61
2023/06/19 06:12:06;;;;;;;10.83;8.67;;;;;;;19.64;100.00;96221.41;4993893;28;105103;-61
2023/06/19 06:14:35;;;;;;;9.47;8.57;;;;;;;19.87;100.00;96235.59;4994211;28;102060;-61
2023/06/19 06:17:02;;;;;;;9.80;8.90;;;;;;;19.87;100.00;96249.09;4994404;28;105169;-61
2023/06/19 06:19:29;;;;;;;10.27;9.07;;;;;;;20.04;100.00;96249.16;4997335;28;105273;-61
2023/06/19 06:21:56;;;;;;;11.47;9.10;;;;;;;20.05;100.00;96248.84;4994187;28;105476;-61
2023/06/19 06:24:23;;;;;;;10.43;9.33;;;;;;;20.11;100.00;96252.25;4993919;28;105255;-61
2023/06/19 06:26:50;;;;;;;10.87;9.30;;;;;;;20.31;100.00;96254.34;4994378;28;101939;-61
2023/06/19 06:29:17;;;;;;;11.37;9.57;;;;;;;20.57;100.00;96256.00;4994217;28;105082;-61
2023/06/19 06:31:47;;;;;;;10.60;8.70;;;;;;;20.90;100.00;96250.94;4993462;28;105352;-61
2023/06/19 06:34:14;;;;;;;10.30;9.40;;;;;;;20.88;100.00;96253.16;5012580;28;101771;-61
2023/06/19 06:36:41;;;;;;;10.67;9.67;;;;;;;21.07;100.00;96264.44;4994200;28;105097;-61
2023/06/19 06:39:08;;;;;;;11.20;9.60;;;;;;;21.50;100.00;96267.88;4993630;28;105039;-61
2023/06/19 06:41:35;;;;;;;15.13;9.40;;;;;;;21.93;100.00;96265.88;4997462;28;102240;-61
2023/06/19 06:44:06;;;;;;;9.87;8.67;;;;;;;22.39;100.00;96274.72;4993164;28;105303;-61
2023/06/19 06:46:33;;;;;;;10.73;8.70;;;;;;;22.62;100.00;96272.56;4994009;28;102015;-61
2023/06/19 06:49:01;;;;;;;9.97;8.07;;;;;;;22.43;100.00;96269.44;4994005;28;104838;-61
2023/06/19 06:51:27;;;;;;;10.00;8.83;;;;;;;22.27;100.00;96271.94;4993330;28;105252;-61
2023/06/19 06:53:54;;;;;;;9.30;8.40;;;;;;;22.38;100.00;96281.28;4994060;28;102588;-61
2023/06/19 06:56:21;;;;;;;11.13;8.47;;;;;;;22.36;100.00;96285.44;4994100;28;105029;-61
2023/06/19 06:58:48;;;;;;;9.33;8.30;;;;;;;22.33;100.00;96280.66;4993049;28;104982;-61
2023/06/19 07:01:15;;;;;;;10.00;8.97;;;;;;;22.53;100.00;96274.50;4993881;28;102093;-61
2023/06/19 07:03:42;;;;;;;9.30;8.47;;;;;;;22.37;100.00;96276.16;4996712;28;103816;-61
2023/06/19 07:06:10;;;;;;;9.63;8.73;;;;;;;22.61;100.00;96274.47;4993683;28;102163;-61
2023/06/19 07:08:38;;;;;;;9.37;8.30;;;;;;;22.77;100.00;96274.69;4993505;28;105053;-61
2023/06/19 07:11:05;;;;;;;9.03;8.20;;;;;;;22.61;100.00;96276.38;4992778;28;103947;-61
2023/06/19 07:13:32;;;;;;;9.70;8.73;;;;;;;22.95;100.00;96276.13;4993028;28;101864;-61
2023/06/19 07:16:01;;;;;;;9.40;8.50;;;;;;;22.62;100.00;96277.97;4993579;28;105144;-61
2023/06/19 07:18:28;;;;;;;10.37;8.10;;;;;;;22.81;100.00;96281.81;4992951;28;105399;-61
2023/06/19 07:20:55;;;;;;;8.87;8.07;;;;;;;23.15;100.00;96288.91;4993353;28;102071;-61
2023/06/19 07:23:23;;;;;;;8.60;7.70;;;;;;;23.33;100.00;96282.22;4996360;28;103769;-61
2023/06/19 07:25:50;;;;;;;8.43;7.73;;;;;;;23.36;100.00;96286.97;4993481;28;102414;-61
2023/06/19 07:28:17;;;;;;;9.17;7.90;;;;;;;23.54;100.00;96289.19;4993265;28;105131;-61
2023/06/19 07:30:47;;;;;;;8.17;7.50;;;;;;;23.76;100.00;96288.03;4992693;28;105018;-61
2023/06/19 07:33:14;;;;;;;7.93;7.23;;;;;;;23.84;100.00;96292.56;4993318;28;103468;-61
2023/06/19 07:35:41;;;;;;;8.60;7.33;;;;;;;23.72;100.00;96293.34;4993375;28;105194;-61
2023/06/19 07:38:08;;;;;;;8.13;7.33;;;;;;;23.72;100.00;96289.81;4992698;28;105352;-61
2023/06/19 07:40:36;;;;;;;8.60;7.57;;;;;;;23.75;100.00;96286.44;5011105;28;102213;-61
2023/06/19 07:43:03;;;;;;;8.10;7.30;;;;;;;23.99;100.00;96286.50;4993015;28;105640;-61
2023/06/19 07:45:30;;;;;;;7.93;7.33;;;;;;;23.99;100.00;96292.75;5014059;28;102633;-61
2023/06/19 07:47:57;;;;;;;7.90;7.30;;;;;;;23.99;100.00;96283.78;5011176;28;102550;-61
2023/06/19 07:50:24;;;;;;;7.90;7.17;;;;;;;24.38;100.00;96292.09;4992296;28;105425;-61
2023/06/19 07:52:51;;;;;;;7.63;6.93;;;;;;;24.49;100.00;96293.22;4992767;28;101906;-61
2023/06/19 07:55:18;;;;;;;7.73;7.13;;;;;;;24.68;100.00;96293.44;4992830;28;105192;-61
2023/06/19 07:57:46;;;;;;;7.80;7.00;;;;;;;25.35;100.00;96288.09;4992193;28;103754;-61
2023/06/19 08:00:14;;;;;;;7.10;6.50;;;;;;;25.54;100.00;96290.16;4992747;28;102011;-61
2023/06/19 08:02:41;;;;;;;8.23;6.13;;;;;;;25.51;100.00;96290.84;4992613;28;105148;-61
2023/06/19 08:05:10;;;;;;;7.30;6.60;;;;;;;25.85;100.00;96285.56;4991732;28;105286;-61
2023/06/19 08:07:37;;;;;;;11.17;6.67;;;;;;;25.97;100.00;96298.34;4995203;28;101998;-61
2023/06/19 08:10:05;;;;;;;6.57;6.00;;;;;;;26.01;90.00;96293.78;4991590;28;104964;-61
2023/06/19 08:12:31;;;;;;;6.90;6.03;;;;;;;26.09;89.79;96290.09;5010584;28;101888;-61
2023/06/19 08:15:00;;;;;;;6.77;6.10;;;;;;;26.45;86.31;96287.91;4992197;28;103818;-61
2023/06/19 08:17:27;;;;;;;6.23;5.47;;;;;;;26.17;75.32;96294.59;5009968;28;101959;-61
2023/06/19 08:19:54;;;;;;;5.87;5.30;;;;;;;26.05;68.50;96292.72;5010719;28;101780;-61
2023/06/19 08:22:21;;;;;;;5.83;5.33;;;;;;;25.98;73.19;96289.81;4992622;28;105407;-61
2023/06/19 08:24:48;;;;;;;5.43;4.93;;;;;;;26.32;74.58;96294.56;5008703;28;103012;-61
2023/06/19 08:27:15;;;;;;;5.60;5.10;;;;;;;25.98;67.29;96283.56;5010594;28;101824;-61
2023/06/19 08:29:43;;;;;;;5.90;5.50;;;;;;;25.97;67.69;96284.72;5013414;28;102364;-61
2023/06/19 08:32:11;;;;;;;5.50;5.00;;;;;;;26.16;64.15;96287.56;5010511;28;101942;-61
2023/06/19 08:34:38;;;;;;;5.53;4.73;;;;;;;26.71;65.82;96281.91;4992102;28;103650;-61
2023/06/19 08:37:06;;;;;;;5.50;5.10;;;;;;;26.92;63.27;96285.09;5009857;28;102719;-61
2023/06/19 08:39:33;;;;;;;5.60;5.10;;;;;;;27.13;54.08;96280.09;4992039;28;102448;-61
2023/06/19 08:42:00;;;;;;;5.30;4.80;;;;;;;27.08;54.25;96283.88;5010473;28;102615;-61
2023/06/19 08:44:27;;;;;;;5.67;5.27;;;;;;;27.46;52.69;96275.75;5009675;28;102518;-61
2023/06/19 08:46:54;;;;;;;5.07;4.67;;;;;;;27.94;60.36;96274.31;5010340;28;101813;-61
2023/06/19 08:49:22;;;;;;;5.77;5.27;;;;;;;27.97;54.53;96273.59;5010278;28;102339;-61
2023/06/19 08:51:49;;;;;;;5.80;5.20;;;;;;;28.04;55.71;96282.72;5012911;28;102480;-60
2023/06/19 08:54:16;;;;;;;5.63;4.77;;;;;;;28.34;51.96;96277.38;4990976;28;105665;-60
2023/06/19 08:56:43;;;;;;;5.50;4.90;;;;;;;28.94;48.45;96270.88;4990329;28;106119;-60
2023/06/19 08:59:12;;;;;;;5.20;4.70;;;;;;;27.77;49.39;96277.50;4991036;28;102164;-61
2023/06/19 09:01:39;;;;;;;5.75;5.25;;;;;;;28.29;59.38;96272.22;5009404;28;102381;-59
2023/06/19 09:04:11;;;;;;;5.57;5.07;;;;;;;28.69;54.13;96264.25;5008603;28;102554;-59
2023/06/19 09:06:47;;;;;;;6.32;5.55;;;;;;;28.37;51.56;96268.41;4991165;28;101889;-60
2023/06/19 09:09:15;;;;;;;5.97;5.27;;;;;;;28.00;50.63;96275.63;5009313;28;102409;-59
2023/06/19 09:11:44;;;;;;;5.77;5.27;;;;;;;28.14;52.37;96265.72;4990976;28;105289;-59
2023/06/19 09:14:11;;;;;;;5.88;5.07;;;;;;;28.23;53.54;96257.25;5013128;28;102139;-59
2023/06/19 09:16:40;;;;;;;5.53;5.10;;;;;;;28.49;51.35;96260.06;5009207;28;102497;-59
2023/06/19 09:19:07;;;;;;;5.20;4.70;;;;;;;28.77;56.30;96255.78;4991027;28;102024;-59
2023/06/19 09:21:37;;;;;;;5.60;5.10;;;;;;;28.45;51.35;96259.97;5009243;28;102622;-59
2023/06/19 09:24:07;;;;;;;5.68;5.22;;;;;;;28.47;50.55;96267.84;5008583;28;103494;-59
2023/06/19 09:26:35;;;;;;;7.50;5.45;;;;;;;28.51;49.83;96260.47;4991392;28;102126;-59
2023/06/19 09:29:12;;;;;;;5.18;4.78;;;;;;;28.32;48.73;96255.84;5008917;28;102129;-59
2023/06/19 09:31:41;;;;;;;4.93;4.50;;;;;;;28.06;48.05;96258.53;4990864;28;105304;-59
2023/06/19 09:34:08;;;;;;;5.27;4.77;;;;;;;28.54;49.45;96254.25;5012661;28;101826;-59
2023/06/19 09:36:36;;;;;;;4.95;4.55;;;;;;;28.28;48.55;96259.69;4990485;28;105305;-59
2023/06/19 09:39:04;;;;;;;4.70;4.40;;;;;;;28.74;46.00;96251.06;4991415;28;101943;-59
2023/06/19 09:41:33;;;;;;;5.00;4.60;;;;;;;29.10;44.39;96255.09;4991465;28;105231;-59
2023/06/19 09:44:01;;;;;;;5.07;4.68;;;;;;;28.74;47.46;96256.53;5008558;28;102814;-59
2023/06/19 09:46:32;;;;;;;5.20;4.80;;;;;;;28.58;46.50;96258.63;5008873;28;102025;-60
2023/06/19 09:49:03;;;;;;;4.97;4.57;;;;;;;29.48;48.20;96257.53;5008813;28;102330;-59
2023/06/19 09:51:33;;;;;;;5.00;4.57;;;;;;;29.74;45.57;96251.97;5008783;28;102575;-59
2023/06/19 09:54:03;;;;;;;5.22;4.72;;;;;;;29.26;43.89;96250.22;5009549;28;101863;-59
2023/06/19 09:56:30;;;;;;;5.10;4.60;;;;;;;29.01;46.71;96243.63;5011875;28;102978;-59
2023/06/19 09:59:00;;;;;;;5.90;5.28;;;;;;;28.70;47.83;96242.00;4991003;28;101893;-59
2023/06/19 10:01:29;;;;;;;5.60;5.10;;;;;;;28.86;49.55;96241.81;5009231;28;102533;-59
2023/06/19 10:04:06;;;;;;;5.35;4.85;;;;;;;29.55;52.79;96235.69;5008534;28;102674;-59
2023/06/19 10:06:33;;;;;;;5.13;4.63;;;;;;;29.78;46.26;96234.38;4990515;28;101924;-60
2023/06/19 10:09:08;;;;;;;5.68;5.20;;;;;;;29.77;46.49;96237.50;5008665;28;102556;-59
2023/06/19 10:11:52;;;;;;;5.20;4.63;;;;;;;29.26;46.06;96236.53;5008734;28;102731;-60
2023/06/19 10:14:20;;;;;;;4.82;4.43;;;;;;;29.67;45.47;96232.69;4990755;28;101807;-60
2023/06/19 10:16:47;;;;;;;4.85;4.40;;;;;;;30.17;45.04;96240.25;4990796;28;105379;-60
2023/06/19 10:19:16;;;;;;;5.00;4.60;;;;;;;29.54;47.81;96234.13;4993855;28;105022;-60
2023/06/19 10:21:49;;;;;;;4.65;4.28;;;;;;;28.97;47.83;96232.63;5008806;28;102371;-60
2023/06/19 10:24:19;;;;;;;4.68;4.38;;;;;;;29.90;46.68;96230.56;5008105;28;102576;-60
2023/06/19 10:26:57;;;;;;;5.47;5.03;;;;;;;29.65;47.49;96229.56;5008674;28;101847;-60
2023/06/19 10:29:27;;;;;;;5.53;5.13;;;;;;;29.25;46.29;96232.22;5008641;28;101721;-60
2023/06/19 10:31:54;;;;;;;5.00;4.57;;;;;;;29.58;45.49;96229.47;5008237;28;102825;-60
2023/06/19 10:34:21;;;;;;;5.38;4.95;;;;;;;29.45;45.40;96225.38;5009007;28;101909;-60
2023/06/19 10:36:48;;;;;;;5.15;4.75;;;;;;;29.73;48.33;96220.22;4990457;28;105205;-60
2023/06/19 10:39:16;;;;;;;5.72;5.32;;;;;;;29.60;46.76;96221.66;5008155;28;102508;-60
2023/06/19 10:41:42;;;;;;;5.47;5.03;;;;;;;29.73;46.01;96226.50;5012269;28;101871;-60
2023/06/19 10:44:12;;;;;;;4.93;4.45;;;;;;;30.30;47.66;96222.34;4989985;28;105377;-60
2023/06/19 10:46:41;;;;;;;4.82;4.53;;;;;;;31.02;47.76;96221.28;4990760;28;101886;-60
2023/06/19 10:49:11;;;;;;;5.40;4.90;;;;;;;31.37;44.49;96209.63;5011337;28;102939;-60
2023/06/19 10:51:39;;;;;;;5.00;4.60;;;;;;;31.79;43.30;96204.28;5011414;28;103127;-60
2023/06/19 10:54:06;;;;;;;5.10;4.80;;;;;;;32.19;43.82;96206.66;4993780;28;101851;-60
2023/06/19 10:56:34;;;;;;;5.68;4.55;;;;;;;32.40;43.99;96196.47;5011983;28;102297;-60
2023/06/19 10:59:01;;;;;;;6.50;4.57;;;;;;;31.59;45.73;96208.53;5011501;28;102736;-60
2023/06/19 11:01:36;;;;;;;5.20;4.80;;;;;;;30.95;42.82;96199.25;4993948;28;102111;-60
2023/06/19 11:04:06;;;;;;;5.28;4.88;;;;;;;29.52;44.93;96200.78;4996441;28;105021;-60
2023/06/19 11:06:33;;;;;;;5.15;4.72;;;;;;;30.17;44.79;96190.88;5011471;28;101935;-61
2023/06/19 11:09:01;;;;;;;4.93;4.53;;;;;;;29.67;43.99;96194.31;5011420;28;102721;-60
2023/06/19 11:11:36;;;;;;;5.25;4.78;;;;;;;29.66;44.62;96190.00;4992947;28;104430;-60
2023/06/19 11:14:05;;;;;;;4.72;4.40;;;;;;;29.76;45.51;96184.63;4993520;28;102082;-60
2023/06/19 11:16:32;;;;;;;4.85;4.45;;;;;;;31.23;46.93;96182.13;4993533;28;105837;-60
2023/06/19 11:18:59;;;;;;;4.90;4.50;;;;;;;30.68;41.19;96188.91;4976325;28;105666;-60